Private Wetterstation Sandau
Wetterdaten: Sonntag, 15.07.2012
Datum Zeit Temp. A. Feuchte A. Luftdruck Regen Wind Richtung Richtung Taupunkt Windchill
15.07.2012 00:01 14,5 C 83 % 1007,1 hPa 0,0 l/m 8,3 km/h (2 Bft) W 270 11,6 C 14,5 C
15.07.2012 00:06 14,6 C 83 % 1007,3 hPa 0,0 l/m 5,0 km/h (1 Bft) W-SW 247 11,7 C 14,6 C
15.07.2012 00:11 14,7 C 83 % 1007,1 hPa 0,0 l/m 10,4 km/h (2 Bft) W 270 11,8 C 14,7 C
15.07.2012 00:16 14,6 C 83 % 1007,2 hPa 0,0 l/m 7,6 km/h (2 Bft) W-SW 247 11,7 C 14,6 C
15.07.2012 00:21 14,6 C 83 % 1007,2 hPa 0,0 l/m 6,1 km/h (2 Bft) W-SW 247 11,7 C 14,6 C
15.07.2012 00:26 14,6 C 83 % 1007,1 hPa 0,0 l/m 5,4 km/h (1 Bft) S-SW 202 11,7 C 14,6 C
15.07.2012 00:31 14,7 C 83 % 1007,3 hPa 0,0 l/m 12,2 km/h (2 Bft) W 270 11,8 C 14,7 C
15.07.2012 00:36 14,8 C 83 % 1007,1 hPa 0,0 l/m 6,1 km/h (2 Bft) W 270 11,9 C 14,8 C
15.07.2012 00:41 14,8 C 83 % 1007,0 hPa 0,0 l/m 9,7 km/h (2 Bft) SW 225 11,9 C 14,8 C
15.07.2012 00:46 14,6 C 83 % 1007,1 hPa 0,0 l/m 6,8 km/h (2 Bft) W-SW 247 11,7 C 14,6 C
15.07.2012 00:51 14,7 C 84 % 1007,1 hPa 0,0 l/m 11,5 km/h (2 Bft) W 270 12,0 C 14,7 C
15.07.2012 00:56 14,7 C 84 % 1007,2 hPa 0,0 l/m 16,9 km/h (3 Bft) W-SW 247 12,0 C 14,7 C
15.07.2012 01:01 14,7 C 85 % 1007,2 hPa 0,0 l/m 11,2 km/h (2 Bft) W-SW 247 12,2 C 14,7 C
15.07.2012 01:06 14,6 C 85 % 1007,1 hPa 0,0 l/m 10,8 km/h (2 Bft) W-SW 247 12,1 C 14,6 C
15.07.2012 01:11 14,5 C 85 % 1007,2 hPa 0,0 l/m 9,0 km/h (2 Bft) W-SW 247 12,0 C 14,5 C
15.07.2012 01:16 14,5 C 85 % 1007,2 hPa 0,0 l/m 9,7 km/h (2 Bft) W 270 12,0 C 14,5 C
15.07.2012 01:21 14,4 C 85 % 1007,2 hPa 0,0 l/m 10,1 km/h (2 Bft) W-SW 247 11,9 C 14,4 C
15.07.2012 01:26 14,4 C 85 % 1007,3 hPa 0,0 l/m 6,1 km/h (2 Bft) W 270 11,9 C 14,4 C
15.07.2012 01:31 14,4 C 85 % 1007,4 hPa 0,0 l/m 3,6 km/h (1 Bft) S-SW 202 11,9 C 14,4 C
15.07.2012 01:36 14,5 C 85 % 1007,2 hPa 0,0 l/m 2,5 km/h (1 Bft) W 270 12,0 C 14,5 C
15.07.2012 01:41 14,5 C 85 % 1007,3 hPa 0,0 l/m 4,3 km/h (1 Bft) W-SW 247 12,0 C 14,5 C
15.07.2012 01:46 14,5 C 85 % 1007,3 hPa 0,0 l/m 7,2 km/h (2 Bft) W-SW 247 12,0 C 14,5 C
15.07.2012 01:51 14,4 C 85 % 1007,3 hPa 0,0 l/m 6,5 km/h (2 Bft) W 270 11,9 C 14,4 C
15.07.2012 01:56 14,4 C 85 % 1007,3 hPa 0,0 l/m 9,7 km/h (2 Bft) W-SW 247 11,9 C 14,4 C
15.07.2012 02:01 14,5 C 85 % 1007,4 hPa 0,0 l/m 9,4 km/h (2 Bft) W 270 12,0 C 14,5 C
15.07.2012 02:06 14,4 C 85 % 1007,4 hPa 0,0 l/m 3,6 km/h (1 Bft) W 270 11,9 C 14,4 C
15.07.2012 02:11 14,4 C 85 % 1007,5 hPa 0,0 l/m 6,5 km/h (2 Bft) S-SW 202 11,9 C 14,4 C
15.07.2012 02:16 14,3 C 86 % 1007,3 hPa 0,0 l/m 14,4 km/h (3 Bft) W-SW 247 12,0 C 14,3 C
15.07.2012 02:21 14,2 C 86 % 1007,3 hPa 0,0 l/m 10,8 km/h (2 Bft) W-SW 247 11,9 C 14,2 C
15.07.2012 02:26 14,2 C 86 % 1007,4 hPa 0,0 l/m 3,2 km/h (1 Bft) W 270 11,9 C 14,2 C
15.07.2012 02:31 14,1 C 86 % 1007,4 hPa 0,0 l/m 5,0 km/h (1 Bft) S-SW 202 11,8 C 14,1 C
15.07.2012 02:36 14,1 C 86 % 1007,5 hPa 0,0 l/m 6,1 km/h (2 Bft) SW 225 11,8 C 14,1 C
15.07.2012 02:41 13,9 C 86 % 1007,6 hPa 0,0 l/m 0,0 km/h (0 Bft) W-SW 247 11,6 C 13,9 C
15.07.2012 02:46 13,9 C 87 % 1007,6 hPa 0,0 l/m 3,6 km/h (1 Bft) W-SW 247 11,8 C 13,9 C
15.07.2012 02:51 13,8 C 87 % 1007,7 hPa 0,0 l/m 9,0 km/h (2 Bft) W-SW 247 11,7 C 13,8 C
15.07.2012 02:56 13,8 C 87 % 1007,7 hPa 0,0 l/m 8,6 km/h (2 Bft) W-SW 247 11,7 C 13,8 C
15.07.2012 03:01 13,8 C 87 % 1007,8 hPa 0,0 l/m 14,0 km/h (3 Bft) W-SW 247 11,7 C 13,8 C
15.07.2012 03:06 13,9 C 87 % 1007,8 hPa 0,0 l/m 6,5 km/h (2 Bft) W-SW 247 11,8 C 13,9 C
15.07.2012 03:11 14,0 C 87 % 1007,7 hPa 0,0 l/m 16,2 km/h (3 Bft) SW 225 11,9 C 14,0 C
15.07.2012 03:16 14,1 C 87 % 1007,7 hPa 0,0 l/m 8,6 km/h (2 Bft) W 270 12,0 C 14,1 C
15.07.2012 03:21 14,1 C 87 % 1007,7 hPa 0,0 l/m 4,3 km/h (1 Bft) SW 225 12,0 C 14,1 C
15.07.2012 03:26 14,1 C 87 % 1007,7 hPa 0,0 l/m 4,7 km/h (1 Bft) S-SW 202 12,0 C 14,1 C
15.07.2012 03:31 14,0 C 87 % 1007,9 hPa 0,0 l/m 6,5 km/h (2 Bft) SW 225 11,9 C 14,0 C
15.07.2012 03:36 13,9 C 87 % 1007,9 hPa 0,0 l/m 7,2 km/h (2 Bft) S-SW 202 11,8 C 13,9 C
15.07.2012 03:41 13,9 C 87 % 1008,0 hPa 0,0 l/m 5,0 km/h (1 Bft) SO 135 11,8 C 13,9 C
15.07.2012 03:46 14,0 C 87 % 1008,0 hPa 0,0 l/m 4,0 km/h (1 Bft) W 270 11,9 C 14,0 C
15.07.2012 03:51 14,1 C 87 % 1007,9 hPa 0,0 l/m 11,9 km/h (2 Bft) W 270 12,0 C 14,1 C
15.07.2012 03:56 14,0 C 87 % 1007,9 hPa 0,0 l/m 3,2 km/h (1 Bft) W-SW 247 11,9 C 14,0 C
15.07.2012 04:01 14,0 C 87 % 1008,0 hPa 0,0 l/m 9,7 km/h (2 Bft) W 270 11,9 C 14,0 C
15.07.2012 04:06 14,0 C 88 % 1008,1 hPa 0,0 l/m 16,9 km/h (3 Bft) W-SW 247 12,0 C 14,0 C
15.07.2012 04:11 14,0 C 88 % 1007,9 hPa 0,0 l/m 5,4 km/h (1 Bft) S-SW 202 12,0 C 14,0 C
15.07.2012 04:16 14,1 C 88 % 1007,9 hPa 0,0 l/m 2,5 km/h (1 Bft) W-SW 247 12,1 C 14,1 C
15.07.2012 04:21 14,1 C 88 % 1008,0 hPa 0,0 l/m 3,2 km/h (1 Bft) W 270 12,1 C 14,1 C
15.07.2012 04:26 14,1 C 88 % 1008,1 hPa 0,0 l/m 6,8 km/h (2 Bft) W-SW 247 12,1 C 14,1 C
15.07.2012 04:31 14,1 C 88 % 1008,3 hPa 0,0 l/m 5,4 km/h (1 Bft) S-SW 202 12,1 C 14,1 C
15.07.2012 04:36 14,1 C 88 % 1008,2 hPa 0,0 l/m 5,0 km/h (1 Bft) SW 225 12,1 C 14,1 C
15.07.2012 04:41 14,1 C 88 % 1008,3 hPa 0,0 l/m 9,7 km/h (2 Bft) SW 225 12,1 C 14,1 C
15.07.2012 04:46 14,1 C 88 % 1008,4 hPa 0,0 l/m 5,8 km/h (2 Bft) SW 225 12,1 C 14,1 C
15.07.2012 04:51 14,1 C 88 % 1008,3 hPa 0,0 l/m 7,6 km/h (2 Bft) W-SW 247 12,1 C 14,1 C
15.07.2012 04:56 14,0 C 88 % 1008,5 hPa 0,0 l/m 8,3 km/h (2 Bft) W-SW 247 12,0 C 14,0 C
15.07.2012 05:01 13,9 C 88 % 1008,5 hPa 0,0 l/m 6,8 km/h (2 Bft) W-SW 247 11,9 C 13,9 C
15.07.2012 05:06 13,9 C 88 % 1008,6 hPa 0,0 l/m 7,9 km/h (2 Bft) W-SW 247 11,9 C 13,9 C
15.07.2012 05:11 13,9 C 88 % 1008,6 hPa 0,0 l/m 3,2 km/h (1 Bft) SW 225 11,9 C 13,9 C
15.07.2012 05:16 14,0 C 88 % 1008,7 hPa 0,0 l/m 6,5 km/h (2 Bft) SW 225 12,0 C 14,0 C
15.07.2012 05:21 14,0 C 88 % 1008,8 hPa 0,0 l/m 5,0 km/h (1 Bft) W-SW 247 12,0 C 14,0 C
15.07.2012 05:26 14,1 C 88 % 1008,8 hPa 0,0 l/m 6,1 km/h (2 Bft) W-SW 247 12,1 C 14,1 C
15.07.2012 05:31 14,0 C 88 % 1008,8 hPa 0,0 l/m 2,2 km/h (1 Bft) SW 225 12,0 C 14,0 C
15.07.2012 05:36 14,1 C 88 % 1008,8 hPa 0,0 l/m 7,2 km/h (2 Bft) SW 225 12,1 C 14,1 C
15.07.2012 05:41 14,1 C 88 % 1009,0 hPa 0,0 l/m 4,0 km/h (1 Bft) S-SW 202 12,1 C 14,1 C
15.07.2012 05:46 14,1 C 88 % 1009,1 hPa 0,0 l/m 8,3 km/h (2 Bft) SW 225 12,1 C 14,1 C
15.07.2012 05:51 13,9 C 88 % 1009,1 hPa 0,0 l/m 2,5 km/h (1 Bft) SW 225 11,9 C 13,9 C
15.07.2012 05:56 14,0 C 88 % 1009,1 hPa 0,0 l/m 4,0 km/h (1 Bft) SW 225 12,0 C 14,0 C
15.07.2012 06:01 14,1 C 88 % 1009,0 hPa 0,0 l/m 5,4 km/h (1 Bft) W-SW 247 12,1 C 14,1 C
15.07.2012 06:06 14,1 C 88 % 1008,8 hPa 0,0 l/m 2,2 km/h (1 Bft) W 270 12,1 C 14,1 C
15.07.2012 06:11 14,1 C 88 % 1008,9 hPa 0,0 l/m 0,0 km/h (0 Bft) W-SW 247 12,1 C 14,1 C
15.07.2012 06:16 14,1 C 88 % 1009,0 hPa 0,0 l/m 7,9 km/h (2 Bft) W-SW 247 12,1 C 14,1 C
15.07.2012 06:21 14,1 C 88 % 1009,0 hPa 0,0 l/m 3,2 km/h (1 Bft) W-SW 247 12,1 C 14,1 C
15.07.2012 06:26 14,1 C 88 % 1009,1 hPa 0,0 l/m 3,6 km/h (1 Bft) W-SW 247 12,1 C 14,1 C
15.07.2012 06:31 14,1 C 88 % 1009,0 hPa 0,0 l/m 5,0 km/h (1 Bft) W-SW 247 12,1 C 14,1 C
15.07.2012 06:36 14,2 C 88 % 1009,0 hPa 0,0 l/m 1,4 km/h (1 Bft) W-SW 247 12,2 C 14,2 C
15.07.2012 06:41 14,3 C 88 % 1009,0 hPa 0,0 l/m 0,0 km/h (0 Bft) W-SW 247 12,3 C 14,3 C
15.07.2012 06:46 14,3 C 88 % 1009,1 hPa 0,0 l/m 1,4 km/h (1 Bft) W-SW 247 12,3 C 14,3 C
15.07.2012 06:51 14,4 C 88 % 1009,0 hPa 0,0 l/m 2,5 km/h (1 Bft) W-SW 247 12,4 C 14,4 C
15.07.2012 06:56 14,4 C 88 % 1009,1 hPa 0,0 l/m 6,1 km/h (2 Bft) W 270 12,4 C 14,4 C
15.07.2012 07:01 14,3 C 88 % 1009,1 hPa 0,0 l/m 2,5 km/h (1 Bft) W-SW 247 12,3 C 14,3 C
15.07.2012 07:06 14,3 C 88 % 1009,2 hPa 0,0 l/m 3,6 km/h (1 Bft) W-SW 247 12,3 C 14,3 C
15.07.2012 07:11 14,4 C 88 % 1009,1 hPa 0,0 l/m 2,5 km/h (1 Bft) W-SW 247 12,4 C 14,4 C
15.07.2012 07:16 14,4 C 88 % 1009,1 hPa 0,0 l/m 2,5 km/h (1 Bft) W-SW 247 12,4 C 14,4 C
15.07.2012 07:21 14,4 C 88 % 1009,1 hPa 0,0 l/m 2,2 km/h (1 Bft) W-SW 247 12,4 C 14,4 C
15.07.2012 07:26 14,4 C 88 % 1009,1 hPa 0,0 l/m 0,0 km/h (0 Bft) W-NW 292 12,4 C 14,4 C
15.07.2012 07:31 14,4 C 88 % 1009,2 hPa 0,0 l/m 2,9 km/h (1 Bft) W-NW 292 12,4 C 14,4 C
15.07.2012 07:36 14,4 C 88 % 1009,2 hPa 0,0 l/m 1,4 km/h (1 Bft) W-NW 292 12,4 C 14,4 C
15.07.2012 07:41 14,4 C 89 % 1009,2 hPa 0,0 l/m 5,0 km/h (1 Bft) W 270 12,6 C 14,4 C
15.07.2012 07:46 14,4 C 89 % 1009,3 hPa 0,0 l/m 4,3 km/h (1 Bft) W-SW 247 12,6 C 14,4 C
15.07.2012 07:51 14,4 C 89 % 1009,3 hPa 0,0 l/m 0,0 km/h (0 Bft) W 270 12,6 C 14,4 C
15.07.2012 07:56 14,3 C 89 % 1009,5 hPa 1,0 l/m 0,0 km/h (0 Bft) W-SW 247 12,5 C 14,3 C
15.07.2012 08:01 14,2 C 89 % 1009,5 hPa 0,0 l/m 0,0 km/h (0 Bft) W-NW 292 12,4 C 14,2 C
15.07.2012 08:06 14,2 C 89 % 1009,5 hPa 0,5 l/m 1,8 km/h (1 Bft) W-NW 292 12,4 C 14,2 C
15.07.2012 08:11 14,1 C 90 % 1009,5 hPa 0,0 l/m 4,0 km/h (1 Bft) NW 315 12,5 C 14,1 C
15.07.2012 08:16 14,0 C 89 % 1009,6 hPa 0,0 l/m 2,2 km/h (1 Bft) W-NW 292 12,2 C 14,0 C
15.07.2012 08:21 13,9 C 90 % 1009,8 hPa 0,5 l/m 2,2 km/h (1 Bft) W 270 12,3 C 13,9 C
15.07.2012 08:26 14,1 C 90 % 1009,8 hPa 0,0 l/m 0,0 km/h (0 Bft) W-NW 292 12,5 C 14,1 C
15.07.2012 08:31 14,1 C 90 % 1009,6 hPa 0,0 l/m 0,0 km/h (0 Bft) W 270 12,5 C 14,1 C
15.07.2012 08:36 14,2 C 90 % 1009,7 hPa 0,0 l/m 0,0 km/h (0 Bft) W-NW 292 12,6 C 14,2 C
15.07.2012 08:41 14,3 C 90 % 1009,8 hPa 0,0 l/m 5,0 km/h (1 Bft) W 270 12,7 C 14,3 C
15.07.2012 08:46 14,3 C 90 % 1009,8 hPa 0,0 l/m 0,0 km/h (0 Bft) W 270 12,7 C 14,3 C
15.07.2012 08:51 14,4 C 90 % 1009,8 hPa 0,0 l/m 1,1 km/h (1 Bft) W 270 12,8 C 14,4 C
15.07.2012 08:56 14,4 C 90 % 1009,9 hPa 0,0 l/m 4,0 km/h (1 Bft) W 270 12,8 C 14,4 C
15.07.2012 09:01 14,4 C 90 % 1010,0 hPa 0,0 l/m 10,4 km/h (2 Bft) W-SW 247 12,8 C 14,4 C
15.07.2012 09:06 14,2 C 90 % 1010,1 hPa 0,0 l/m 4,0 km/h (1 Bft) SW 225 12,6 C 14,2 C
15.07.2012 09:11 14,2 C 90 % 1010,2 hPa 0,5 l/m 3,6 km/h (1 Bft) W 270 12,6 C 14,2 C
15.07.2012 09:16 14,1 C 89 % 1010,2 hPa 0,0 l/m 3,2 km/h (1 Bft) W 270 12,3 C 14,1 C
15.07.2012 09:21 14,1 C 89 % 1010,2 hPa 0,0 l/m 2,5 km/h (1 Bft) W 270 12,3 C 14,1 C
15.07.2012 09:26 14,1 C 89 % 1010,2 hPa 0,0 l/m 4,7 km/h (1 Bft) SW 225 12,3 C 14,1 C
15.07.2012 09:31 14,2 C 89 % 1010,2 hPa 0,5 l/m 4,3 km/h (1 Bft) W 270 12,4 C 14,2 C
15.07.2012 09:36 14,1 C 89 % 1010,3 hPa 0,0 l/m 3,2 km/h (1 Bft) W-NW 292 12,3 C 14,1 C
15.07.2012 09:41 14,2 C 89 % 1010,3 hPa 0,5 l/m 8,6 km/h (2 Bft) W-SW 247 12,4 C 14,2 C
15.07.2012 09:46 14,1 C 89 % 1010,4 hPa 0,0 l/m 3,2 km/h (1 Bft) W-SW 247 12,3 C 14,1 C
15.07.2012 09:51 14,3 C 90 % 1010,6 hPa 0,0 l/m 3,6 km/h (1 Bft) W-NW 292 12,7 C 14,3 C
15.07.2012 09:56 14,3 C 89 % 1010,5 hPa 0,0 l/m 0,0 km/h (0 Bft) W 270 12,5 C 14,3 C
15.07.2012 10:01 14,4 C 89 % 1010,5 hPa 0,5 l/m 0,0 km/h (0 Bft) W 270 12,6 C 14,4 C
15.07.2012 10:06 14,6 C 89 % 1010,6 hPa 0,0 l/m 8,3 km/h (2 Bft) W-SW 247 12,8 C 14,6 C
15.07.2012 10:11 14,8 C 89 % 1010,6 hPa 0,0 l/m 0,0 km/h (0 Bft) W 270 13,0 C 14,8 C
15.07.2012 10:16 14,9 C 89 % 1010,6 hPa 0,0 l/m 5,4 km/h (1 Bft) W-SW 247 13,1 C 14,9 C
15.07.2012 10:21 14,9 C 88 % 1010,6 hPa 0,0 l/m 2,5 km/h (1 Bft) W-SW 247 12,9 C 14,9 C
15.07.2012 10:26 15,3 C 87 % 1010,5 hPa 0,0 l/m 2,5 km/h (1 Bft) W-NW 292 13,1 C 15,3 C
15.07.2012 10:31 15,6 C 86 % 1010,5 hPa 0,0 l/m 2,2 km/h (1 Bft) NW 315 13,3 C 15,6 C
15.07.2012 10:36 16,2 C 84 % 1010,6 hPa 0,0 l/m 4,0 km/h (1 Bft) W-NW 292 13,5 C 16,2 C
15.07.2012 10:41 16,8 C 83 % 1010,6 hPa 0,0 l/m 4,0 km/h (1 Bft) W-NW 292 13,9 C 16,8 C
15.07.2012 10:46 17,1 C 82 % 1010,7 hPa 0,0 l/m 2,2 km/h (1 Bft) W-SW 247 14,0 C 17,1 C
15.07.2012 10:51 17,6 C 79 % 1010,9 hPa 0,0 l/m 5,8 km/h (2 Bft) W 270 13,9 C 17,6 C
15.07.2012 10:56 18,1 C 78 % 1010,9 hPa 0,0 l/m 15,5 km/h (3 Bft) W 270 14,2 C 18,1 C
15.07.2012 11:01 18,3 C 75 % 1010,9 hPa 0,0 l/m 5,4 km/h (1 Bft) W-SW 247 13,8 C 18,3 C
15.07.2012 11:06 18,8 C 74 % 1010,9 hPa 0,0 l/m 11,9 km/h (2 Bft) W-SW 247 14,1 C 18,8 C
15.07.2012 11:11 18,6 C 72 % 1010,9 hPa 0,0 l/m 6,1 km/h (2 Bft) W-SW 247 13,4 C 18,6 C
15.07.2012 11:16 18,9 C 74 % 1010,9 hPa 0,0 l/m 13,7 km/h (3 Bft) S-SW 202 14,2 C 18,9 C
15.07.2012 11:21 18,8 C 72 % 1010,9 hPa 0,0 l/m 13,0 km/h (3 Bft) W-SW 247 13,6 C 18,8 C
15.07.2012 11:26 18,4 C 72 % 1011,0 hPa 0,0 l/m 7,6 km/h (2 Bft) W-NW 292 13,3 C 18,4 C
15.07.2012 11:31 17,9 C 73 % 1011,0 hPa 0,0 l/m 3,6 km/h (1 Bft) W 270 13,0 C 17,9 C
15.07.2012 11:36 18,4 C 70 % 1011,0 hPa 0,0 l/m 11,9 km/h (2 Bft) SW 225 12,8 C 18,4 C
15.07.2012 11:41 18,3 C 68 % 1011,0 hPa 0,0 l/m 19,1 km/h (3 Bft) W-SW 247 12,3 C 18,3 C
15.07.2012 11:46 18,7 C 69 % 1011,0 hPa 0,0 l/m 11,5 km/h (2 Bft) W 270 12,9 C 18,7 C
15.07.2012 11:51 18,9 C 67 % 1011,1 hPa 0,0 l/m 3,2 km/h (1 Bft) W-NW 292 12,6 C 18,9 C
15.07.2012 11:56 18,8 C 68 % 1011,1 hPa 0,0 l/m 16,9 km/h (3 Bft) W-SW 247 12,8 C 18,8 C
15.07.2012 12:01 18,4 C 69 % 1011,0 hPa 0,0 l/m 14,8 km/h (3 Bft) W-SW 247 12,6 C 18,4 C
15.07.2012 12:06 18,1 C 69 % 1011,0 hPa 0,0 l/m 14,8 km/h (3 Bft) W-SW 247 12,3 C 18,1 C
15.07.2012 12:11 17,9 C 70 % 1011,0 hPa 0,0 l/m 16,9 km/h (3 Bft) W-SW 247 12,3 C 17,9 C
15.07.2012 12:16 18,6 C 69 % 1011,1 hPa 0,0 l/m 9,7 km/h (2 Bft) S-SW 202 12,8 C 18,6 C
15.07.2012 12:21 18,9 C 65 % 1011,3 hPa 0,0 l/m 6,5 km/h (2 Bft) W-SW 247 12,2 C 18,9 C
15.07.2012 12:26 18,4 C 66 % 1011,2 hPa 0,0 l/m 9,0 km/h (2 Bft) NW 315 11,9 C 18,4 C
15.07.2012 12:31 18,0 C 66 % 1011,2 hPa 0,0 l/m 7,2 km/h (2 Bft) W 270 11,6 C 18,0 C
15.07.2012 12:36 17,8 C 67 % 1011,3 hPa 0,0 l/m 5,4 km/h (1 Bft) W-NW 292 11,6 C 17,8 C
15.07.2012 12:41 17,7 C 67 % 1011,2 hPa 0,0 l/m 12,2 km/h (2 Bft) NW 315 11,5 C 17,7 C
15.07.2012 12:46 17,3 C 69 % 1011,2 hPa 0,0 l/m 2,5 km/h (1 Bft) W-NW 292 11,6 C 17,3 C
15.07.2012 12:51 17,4 C 70 % 1011,2 hPa 0,0 l/m 6,8 km/h (2 Bft) N-NO 22 11,9 C 17,4 C
15.07.2012 12:56 18,2 C 69 % 1011,3 hPa 0,0 l/m 7,6 km/h (2 Bft) NW 315 12,4 C 18,2 C
15.07.2012 13:01 19,5 C 66 % 1011,2 hPa 0,0 l/m 6,1 km/h (2 Bft) W-SW 247 13,0 C 19,5 C
15.07.2012 13:06 20,3 C 61 % 1011,3 hPa 0,0 l/m 14,4 km/h (3 Bft) SW 225 12,5 C 20,3 C
15.07.2012 13:11 20,8 C 55 % 1011,2 hPa 0,0 l/m 10,1 km/h (2 Bft) NW 315 11,4 C 20,8 C
15.07.2012 13:16 20,4 C 56 % 1011,4 hPa 0,0 l/m 18,4 km/h (3 Bft) W-SW 247 11,3 C 20,4 C
15.07.2012 13:21 19,5 C 59 % 1011,4 hPa 0,0 l/m 9,4 km/h (2 Bft) W-SW 247 11,3 C 19,5 C
15.07.2012 13:26 18,9 C 61 % 1011,3 hPa 0,0 l/m 6,1 km/h (2 Bft) S-SW 202 11,2 C 18,9 C
15.07.2012 13:31 18,6 C 62 % 1011,4 hPa 0,0 l/m 7,9 km/h (2 Bft) W 270 11,2 C 18,6 C
15.07.2012 13:36 18,9 C 63 % 1011,5 hPa 0,0 l/m 18,0 km/h (3 Bft) W 270 11,7 C 18,9 C
15.07.2012 13:41 19,3 C 62 % 1011,8 hPa 0,0 l/m 7,6 km/h (2 Bft) W-NW 292 11,8 C 19,3 C
15.07.2012 13:46 19,6 C 61 % 1011,7 hPa 0,0 l/m 18,7 km/h (3 Bft) W-SW 247 11,9 C 19,6 C
15.07.2012 13:51 19,8 C 57 % 1011,7 hPa 0,0 l/m 15,1 km/h (3 Bft) W-SW 247 11,0 C 19,8 C
15.07.2012 13:56 19,6 C 59 % 1011,7 hPa 0,0 l/m 25,6 km/h (4 Bft) W 270 11,4 C 19,6 C
15.07.2012 14:01 19,6 C 58 % 1011,6 hPa 0,0 l/m 19,4 km/h (3 Bft) W-SW 247 11,1 C 19,6 C
15.07.2012 14:06 19,7 C 59 % 1011,7 hPa 0,0 l/m 8,6 km/h (2 Bft) W-NW 292 11,5 C 19,7 C
15.07.2012 14:11 19,5 C 59 % 1011,6 hPa 0,0 l/m 14,4 km/h (3 Bft) W 270 11,3 C 19,5 C
15.07.2012 14:16 19,8 C 61 % 1011,5 hPa 0,0 l/m 14,8 km/h (3 Bft) W-SW 247 12,1 C 19,8 C
15.07.2012 14:21 20,8 C 60 % 1011,5 hPa 0,0 l/m 16,9 km/h (3 Bft) W-SW 247 12,7 C 20,8 C
15.07.2012 14:26 21,0 C 59 % 1011,6 hPa 0,0 l/m 5,8 km/h (2 Bft) S-SW 202 12,7 C 21,0 C
15.07.2012 14:31 21,3 C 56 % 1011,5 hPa 0,0 l/m 6,5 km/h (2 Bft) W-NW 292 12,2 C 21,3 C
15.07.2012 14:36 21,2 C 54 % 1011,6 hPa 0,0 l/m 10,1 km/h (2 Bft) N-NW 337 11,5 C 21,2 C
15.07.2012 14:41 21,3 C 55 % 1011,6 hPa 0,0 l/m 11,5 km/h (2 Bft) W-SW 247 11,9 C 21,3 C
15.07.2012 14:46 21,3 C 56 % 1011,7 hPa 0,0 l/m 8,3 km/h (2 Bft) W-SW 247 12,2 C 21,3 C
15.07.2012 14:51 21,7 C 53 % 1011,6 hPa 0,0 l/m 8,6 km/h (2 Bft) W-SW 247 11,7 C 21,7 C
15.07.2012 14:56 22,1 C 53 % 1011,6 hPa 0,0 l/m 13,7 km/h (3 Bft) W-SW 247 12,1 C 22,1 C
15.07.2012 15:01 22,3 C 52 % 1011,6 hPa 0,0 l/m 4,7 km/h (1 Bft) W-NW 292 12,0 C 22,3 C
15.07.2012 15:06 22,8 C 51 % 1011,5 hPa 0,0 l/m 10,8 km/h (2 Bft) S-SW 202 12,1 C 22,8 C
15.07.2012 15:11 22,9 C 49 % 1011,6 hPa 0,0 l/m 10,4 km/h (2 Bft) W 270 11,6 C 22,9 C
15.07.2012 15:16 22,6 C 49 % 1011,6 hPa 0,0 l/m 15,5 km/h (3 Bft) W-SW 247 11,3 C 22,6 C
15.07.2012 15:21 21,8 C 50 % 1011,6 hPa 0,0 l/m 6,8 km/h (2 Bft) SW 225 10,9 C 21,8 C
15.07.2012 15:26 21,3 C 50 % 1011,6 hPa 0,0 l/m 7,6 km/h (2 Bft) NW 315 10,4 C 21,3 C
15.07.2012 15:31 21,6 C 50 % 1011,6 hPa 0,0 l/m 8,3 km/h (2 Bft) W 270 10,7 C 21,6 C
15.07.2012 15:36 21,3 C 50 % 1011,6 hPa 0,0 l/m 11,9 km/h (2 Bft) NW 315 10,4 C 21,3 C
15.07.2012 15:41 21,5 C 52 % 1011,7 hPa 0,0 l/m 13,7 km/h (3 Bft) N-NO 22 11,2 C 21,5 C
15.07.2012 15:46 21,1 C 53 % 1011,8 hPa 0,0 l/m 16,6 km/h (3 Bft) N-NO 22 11,1 C 21,1 C
15.07.2012 15:51 20,8 C 53 % 1011,8 hPa 0,0 l/m 13,0 km/h (3 Bft) NO 45 10,9 C 20,8 C
15.07.2012 15:56 21,4 C 52 % 1011,7 hPa 0,0 l/m 8,3 km/h (2 Bft) W 270 11,1 C 21,4 C
15.07.2012 16:01 21,5 C 50 % 1011,9 hPa 0,0 l/m 15,8 km/h (3 Bft) N-NO 22 10,6 C 21,5 C
15.07.2012 16:06 21,6 C 52 % 1012,0 hPa 0,0 l/m 7,6 km/h (2 Bft) NW 315 11,3 C 21,6 C
15.07.2012 16:11 22,1 C 50 % 1012,0 hPa 0,0 l/m 10,1 km/h (2 Bft) NW 315 11,2 C 22,1 C
15.07.2012 16:16 21,6 C 51 % 1012,0 hPa 0,0 l/m 2,5 km/h (1 Bft) W-NW 292 11,0 C 21,6 C
15.07.2012 16:21 21,1 C 53 % 1011,9 hPa 0,0 l/m 11,2 km/h (2 Bft) NW 315 11,1 C 21,1 C
15.07.2012 16:26 21,1 C 53 % 1012,0 hPa 0,0 l/m 5,8 km/h (2 Bft) W-NW 292 11,1 C 21,1 C
15.07.2012 16:31 20,9 C 53 % 1012,0 hPa 0,0 l/m 8,3 km/h (2 Bft) W 270 11,0 C 20,9 C
15.07.2012 16:36 20,6 C 53 % 1012,1 hPa 0,0 l/m 11,5 km/h (2 Bft) W 270 10,7 C 20,6 C
15.07.2012 16:41 20,4 C 53 % 1012,0 hPa 0,0 l/m 9,7 km/h (2 Bft) N-NW 337 10,5 C 20,4 C
15.07.2012 16:46 21,5 C 52 % 1012,2 hPa 0,0 l/m 9,7 km/h (2 Bft) N-NW 337 11,2 C 21,5 C
15.07.2012 16:51 21,5 C 52 % 1012,2 hPa 0,0 l/m 10,4 km/h (2 Bft) NW 315 11,2 C 21,5 C
15.07.2012 16:56 21,1 C 51 % 1012,3 hPa 0,0 l/m 6,1 km/h (2 Bft) N-NO 22 10,6 C 21,1 C
15.07.2012 17:01 20,5 C 50 % 1012,4 hPa 0,0 l/m 14,8 km/h (3 Bft) NW 315 9,7 C 20,5 C
15.07.2012 17:06 20,2 C 51 % 1012,6 hPa 0,0 l/m 6,5 km/h (2 Bft) W 270 9,7 C 20,2 C
15.07.2012 17:11 19,9 C 52 % 1012,6 hPa 0,0 l/m 5,4 km/h (1 Bft) W-NW 292 9,7 C 19,9 C
15.07.2012 17:16 19,7 C 53 % 1012,8 hPa 0,0 l/m 6,5 km/h (2 Bft) W-NW 292 9,8 C 19,7 C
15.07.2012 17:21 19,6 C 54 % 1012,7 hPa 0,0 l/m 14,8 km/h (3 Bft) W 270 10,0 C 19,6 C
15.07.2012 17:26 19,8 C 55 % 1012,7 hPa 0,0 l/m 5,0 km/h (1 Bft) W-NW 292 10,5 C 19,8 C
15.07.2012 17:31 19,9 C 55 % 1012,8 hPa 0,0 l/m 4,0 km/h (1 Bft) W-NW 292 10,6 C 19,9 C
15.07.2012 17:36 20,3 C 55 % 1012,7 hPa 0,0 l/m 5,8 km/h (2 Bft) NW 315 11,0 C 20,3 C
15.07.2012 17:41 21,2 C 53 % 1012,7 hPa 0,0 l/m 7,9 km/h (2 Bft) W-SW 247 11,2 C 21,2 C
15.07.2012 17:46 21,5 C 51 % 1012,7 hPa 0,0 l/m 1,8 km/h (1 Bft) W-NW 292 10,9 C 21,5 C
15.07.2012 17:51 21,7 C 50 % 1012,7 hPa 0,0 l/m 8,3 km/h (2 Bft) W-NW 292 10,8 C 21,7 C
15.07.2012 17:56 20,9 C 50 % 1012,7 hPa 0,0 l/m 3,2 km/h (1 Bft) W 270 10,1 C 20,9 C
15.07.2012 18:01 20,5 C 52 % 1012,7 hPa 0,0 l/m 3,6 km/h (1 Bft) N-NW 337 10,3 C 20,5 C
15.07.2012 18:06 20,3 C 51 % 1012,7 hPa 0,0 l/m 9,4 km/h (2 Bft) N-NO 22 9,8 C 20,3 C
15.07.2012 18:11 19,9 C 52 % 1012,8 hPa 0,0 l/m 3,2 km/h (1 Bft) N-NO 22 9,7 C 19,9 C
15.07.2012 18:16 19,8 C 52 % 1012,8 hPa 0,0 l/m 1,1 km/h (1 Bft) N-NW 337 9,7 C 19,8 C
15.07.2012 18:21 19,6 C 53 % 1012,8 hPa 0,0 l/m 3,2 km/h (1 Bft) NW 315 9,8 C 19,6 C
15.07.2012 18:26 20,1 C 51 % 1012,9 hPa 0,0 l/m 3,6 km/h (1 Bft) NW 315 9,6 C 20,1 C
15.07.2012 18:31 20,2 C 48 % 1012,9 hPa 0,0 l/m 13,7 km/h (3 Bft) N-NW 337 8,8 C 20,2 C
15.07.2012 18:36 20,1 C 48 % 1013,0 hPa 0,0 l/m 7,6 km/h (2 Bft) O-NO 67 8,7 C 20,1 C
15.07.2012 18:41 20,3 C 49 % 1013,0 hPa 0,0 l/m 6,1 km/h (2 Bft) NO 45 9,2 C 20,3 C
15.07.2012 18:46 20,1 C 49 % 1013,0 hPa 0,0 l/m 10,8 km/h (2 Bft) N 360 9,0 C 20,1 C
15.07.2012 18:51 20,3 C 50 % 1013,1 hPa 0,0 l/m 6,1 km/h (2 Bft) N-NO 22 9,5 C 20,3 C
15.07.2012 18:56 20,5 C 49 % 1013,1 hPa 0,0 l/m 6,1 km/h (2 Bft) N 360 9,4 C 20,5 C
15.07.2012 19:01 20,6 C 48 % 1013,1 hPa 0,0 l/m 16,6 km/h (3 Bft) N 360 9,2 C 20,6 C
15.07.2012 19:06 20,3 C 47 % 1013,0 hPa 0,0 l/m 12,2 km/h (2 Bft) NO 45 8,6 C 20,3 C
15.07.2012 19:11 20,4 C 50 % 1013,3 hPa 0,0 l/m 6,5 km/h (2 Bft) N-NW 337 9,6 C 20,4 C
15.07.2012 19:16 20,7 C 48 % 1013,3 hPa 0,0 l/m 6,1 km/h (2 Bft) N 360 9,3 C 20,7 C
15.07.2012 19:21 20,5 C 48 % 1013,5 hPa 0,0 l/m 7,9 km/h (2 Bft) N-NW 337 9,1 C 20,5 C
15.07.2012 19:26 20,1 C 48 % 1013,5 hPa 0,0 l/m 7,6 km/h (2 Bft) N 360 8,7 C 20,1 C
15.07.2012 19:31 19,9 C 49 % 1013,6 hPa 0,0 l/m 4,7 km/h (1 Bft) N-NO 22 8,9 C 19,9 C
15.07.2012 19:36 19,9 C 49 % 1013,7 hPa 0,0 l/m 17,3 km/h (3 Bft) NW 315 8,9 C 19,9 C
15.07.2012 19:41 19,5 C 48 % 1013,9 hPa 0,0 l/m 2,2 km/h (1 Bft) NO 45 8,2 C 19,5 C
15.07.2012 19:46 20,1 C 49 % 1014,0 hPa 0,0 l/m 8,6 km/h (2 Bft) NO 45 9,0 C 20,1 C
15.07.2012 19:51 19,4 C 49 % 1013,9 hPa 0,0 l/m 6,1 km/h (2 Bft) N-NO 22 8,4 C 19,4 C
15.07.2012 19:56 19,3 C 50 % 1013,9 hPa 0,0 l/m 9,4 km/h (2 Bft) N 360 8,6 C 19,3 C
15.07.2012 20:01 18,7 C 52 % 1014,0 hPa 0,0 l/m 9,4 km/h (2 Bft) NW 315 8,6 C 18,7 C
15.07.2012 20:06 18,6 C 51 % 1013,9 hPa 0,0 l/m 7,2 km/h (2 Bft) N-NO 22 8,3 C 18,6 C
15.07.2012 20:11 18,4 C 52 % 1014,2 hPa 0,0 l/m 4,3 km/h (1 Bft) N 360 8,4 C 18,4 C
15.07.2012 20:16 18,8 C 52 % 1014,4 hPa 0,0 l/m 6,1 km/h (2 Bft) NO 45 8,7 C 18,8 C
15.07.2012 20:21 19,2 C 51 % 1014,5 hPa 0,0 l/m 2,5 km/h (1 Bft) NO 45 8,8 C 19,2 C
15.07.2012 20:26 19,1 C 51 % 1014,5 hPa 0,0 l/m 4,3 km/h (1 Bft) N-NO 22 8,7 C 19,1 C
15.07.2012 20:31 18,7 C 51 % 1014,5 hPa 0,0 l/m 6,8 km/h (2 Bft) N 360 8,4 C 18,7 C
15.07.2012 20:36 18,3 C 52 % 1014,5 hPa 0,0 l/m 5,4 km/h (1 Bft) N-NO 22 8,3 C 18,3 C
15.07.2012 20:41 17,9 C 54 % 1014,5 hPa 0,0 l/m 5,0 km/h (1 Bft) NO 45 8,5 C 17,9 C
15.07.2012 20:46 17,7 C 55 % 1014,5 hPa 0,0 l/m 0,0 km/h (0 Bft) N 360 8,5 C 17,7 C
15.07.2012 20:51 17,6 C 56 % 1014,6 hPa 0,0 l/m 1,1 km/h (1 Bft) N 360 8,7 C 17,6 C
15.07.2012 20:56 17,4 C 56 % 1014,5 hPa 0,0 l/m 0,0 km/h (0 Bft) NW 315 8,5 C 17,4 C
15.07.2012 21:01 17,3 C 57 % 1014,6 hPa 0,0 l/m 0,0 km/h (0 Bft) W-NW 292 8,7 C 17,3 C
15.07.2012 21:06 17,1 C 58 % 1014,6 hPa 0,0 l/m 1,4 km/h (1 Bft) N-NW 337 8,8 C 17,1 C
15.07.2012 21:11 17,0 C 60 % 1014,9 hPa 0,0 l/m 0,0 km/h (0 Bft) N-NW 337 9,2 C 17,0 C
15.07.2012 21:16 16,8 C 61 % 1014,8 hPa 0,0 l/m 3,6 km/h (1 Bft) N-NW 337 9,2 C 16,8 C
15.07.2012 21:21 16,7 C 62 % 1014,8 hPa 0,0 l/m 2,5 km/h (1 Bft) N 360 9,4 C 16,7 C
15.07.2012 21:26 16,5 C 62 % 1015,0 hPa 0,0 l/m 2,2 km/h (1 Bft) N-NW 337 9,2 C 16,5 C
15.07.2012 21:31 16,3 C 63 % 1015,0 hPa 0,0 l/m 2,2 km/h (1 Bft) N-NW 337 9,2 C 16,3 C
15.07.2012 21:36 16,1 C 64 % 1015,0 hPa 0,0 l/m 1,1 km/h (1 Bft) N-NW 337 9,3 C 16,1 C
15.07.2012 21:41 15,9 C 64 % 1015,1 hPa 0,0 l/m 0,0 km/h (0 Bft) N-NW 337 9,1 C 15,9 C
15.07.2012 21:46 15,9 C 65 % 1015,1 hPa 0,0 l/m 0,0 km/h (0 Bft) N-NW 337 9,3 C 15,9 C
15.07.2012 21:51 15,8 C 66 % 1015,4 hPa 0,0 l/m 1,1 km/h (1 Bft) N-NW 337 9,5 C 15,8 C
15.07.2012 21:56 15,6 C 66 % 1015,2 hPa 0,0 l/m 0,0 km/h (0 Bft) N-NW 337 9,3 C 15,6 C
15.07.2012 22:01 15,7 C 66 % 1015,2 hPa 0,0 l/m 0,0 km/h (0 Bft) N-NW 337 9,4 C 15,7 C
15.07.2012 22:06 15,6 C 66 % 1015,2 hPa 0,0 l/m 0,0 km/h (0 Bft) N-NW 337 9,3 C 15,6 C
15.07.2012 22:11 15,6 C 66 % 1015,3 hPa 0,0 l/m 0,0 km/h (0 Bft) N-NW 337 9,3 C 15,6 C
15.07.2012 22:16 15,6 C 66 % 1015,3 hPa 0,0 l/m 2,5 km/h (1 Bft) N-NW 337 9,3 C 15,6 C
15.07.2012 22:21 15,6 C 67 % 1015,5 hPa 0,0 l/m 0,0 km/h (0 Bft) NW 315 9,5 C 15,6 C
15.07.2012 22:26 15,5 C 68 % 1015,4 hPa 0,0 l/m 0,0 km/h (0 Bft) NW 315 9,6 C 15,5 C
15.07.2012 22:31 15,5 C 68 % 1015,4 hPa 0,0 l/m 0,0 km/h (0 Bft) W-NW 292 9,6 C 15,5 C
15.07.2012 22:36 15,4 C 68 % 1015,5 hPa 0,0 l/m 0,0 km/h (0 Bft) NW 315 9,5 C 15,4 C
15.07.2012 22:41 15,4 C 68 % 1015,6 hPa 0,0 l/m 1,1 km/h (1 Bft) W-NW 292 9,5 C 15,4 C
15.07.2012 22:46 15,3 C 68 % 1015,6 hPa 0,0 l/m 1,4 km/h (1 Bft) W-NW 292 9,4 C 15,3 C
15.07.2012 22:51 15,2 C 69 % 1015,6 hPa 0,0 l/m 0,0 km/h (0 Bft) W-NW 292 9,6 C 15,2 C
15.07.2012 22:56 14,9 C 69 % 1015,6 hPa 0,0 l/m 0,0 km/h (0 Bft) W-NW 292 9,3 C 14,9 C
15.07.2012 23:01 14,9 C 70 % 1015,6 hPa 0,0 l/m 1,4 km/h (1 Bft) W-NW 292 9,5 C 14,9 C
15.07.2012 23:06 14,9 C 71 % 1015,7 hPa 0,0 l/m 0,0 km/h (0 Bft) W-NW 292 9,7 C 14,9 C
15.07.2012 23:11 14,9 C 71 % 1015,9 hPa 0,0 l/m 2,2 km/h (1 Bft) W-NW 292 9,7 C 14,9 C
15.07.2012 23:16 14,9 C 71 % 1016,0 hPa 0,0 l/m 2,2 km/h (1 Bft) W-NW 292 9,7 C 14,9 C
15.07.2012 23:21 15,0 C 71 % 1015,7 hPa 0,0 l/m 1,1 km/h (1 Bft) W-NW 292 9,8 C 15,0 C
15.07.2012 23:26 15,0 C 71 % 1016,0 hPa 0,0 l/m 1,1 km/h (1 Bft) W-NW 292 9,8 C 15,0 C
15.07.2012 23:31 15,1 C 71 % 1016,1 hPa 0,0 l/m 0,0 km/h (0 Bft) W-NW 292 9,9 C 15,1 C
15.07.2012 23:36 15,1 C 71 % 1016,2 hPa 0,0 l/m 0,0 km/h (0 Bft) W-NW 292 9,9 C 15,1 C
15.07.2012 23:41 15,0 C 70 % 1016,3 hPa 0,0 l/m 0,0 km/h (0 Bft) W-NW 292 9,6 C 15,0 C
15.07.2012 23:46 15,1 C 71 % 1016,3 hPa 0,0 l/m 0,0 km/h (0 Bft) W-NW 292 9,9 C 15,1 C
15.07.2012 23:51 15,0 C 71 % 1016,2 hPa 0,0 l/m 0,0 km/h (0 Bft) W-SW 247 9,8 C 15,0 C
15.07.2012 23:56 15,0 C 71 % 1016,3 hPa 0,0 l/m 0,0 km/h (0 Bft) W-SW 247 9,8 C 15,0 C
_ Min-Zeit 02:51 19:06 00:41 - 02:41 - - 19:41 02:51
Minimum _ 13,8 C 47 % 1007,0 hPa - 0,0 km/h (0 Bft) - - 8,2 C 13,8 C
_ Max-Zeit 15:11 08:11 23:41 07:56 13:56 - - 10:56 15:11
Maximum _ 22,9 C 90 % 1016,3 hPa 1,0 l/m 25,6 km/h
W (4 Bft)
- - 14,2 C 22,9 C
Durchschnitt _ 16,8 C 72 % 1011,0 hPa #4,1 l/m 6,3 km/h (2 Bft) W-SW - 11,3 C 16,8 C
(c) by David Heller